Time;durP1;ratioP1;P1;durP2;ratioP2;P2;SDS_P1;SDS_P2;PMS_P1;PMS_P2;Temp;Humidity;BMP_temperature;BMP_pressure;BME280_temperature;BME280_humidity;BME280_pressure;Samples;Min_cycle;Max_cycle;Signal;HPM_P1;HPM_P2
2022/07/08 00:02:19;;;;;;;2.43;1.80;;;;;;;-145.69;100.00;72116.81;5073345;28;20317;-79
2022/07/08 00:04:46;;;;;;;1.93;1.50;;;;;;;-145.69;100.00;72146.69;5073482;28;20199;-80
2022/07/08 00:07:12;;;;;;;3.37;1.97;;;;;;;-145.69;100.00;72146.69;5073697;28;20199;-80
2022/07/08 00:09:39;;;;;;;5.63;1.70;;;;;;;-145.69;100.00;72170.56;5073125;28;20203;-80
2022/07/08 00:12:06;;;;;;;6.55;1.90;;;;;;;-145.69;100.00;72172.53;5072822;28;20505;-80
2022/07/08 00:14:32;;;;;;;3.92;1.67;;;;;;;-145.69;100.00;72178.53;5073533;28;20275;-80
2022/07/08 00:16:59;;;;;;;2.90;2.00;;;;;;;-145.69;100.00;72154.63;5073369;28;20561;-80
2022/07/08 00:19:26;;;;;;;3.33;1.90;;;;;;;-145.69;100.00;72112.84;5073317;28;20194;-80
2022/07/08 00:21:53;;;;;;;2.20;1.77;;;;;;;-145.69;100.00;72108.84;5073091;28;20237;-80
2022/07/08 00:24:20;;;;;;;2.93;1.63;;;;;;;-145.69;100.00;72126.78;5053796;28;20215;-80
2022/07/08 00:26:46;;;;;;;3.53;1.67;;;;;;;-145.69;100.00;72130.75;5053300;28;20606;-80
2022/07/08 00:29:13;;;;;;;2.10;1.70;;;;;;;-145.69;100.00;72138.72;5053282;28;20207;-80
2022/07/08 00:31:39;;;;;;;2.63;1.90;;;;;;;-145.69;100.00;72150.66;5052992;28;20562;-80
2022/07/08 00:34:06;;;;;;;2.23;1.67;;;;;;;-145.69;100.00;72170.56;5053158;28;20195;-80
2022/07/08 00:36:35;;;;;;;2.33;1.90;;;;;;;-145.69;100.00;72190.47;5052595;28;20202;-80
2022/07/08 00:39:02;;;;;;;2.50;2.00;;;;;;;-145.69;100.00;72202.41;5065500;28;20212;-80
2022/07/08 00:41:28;;;;;;;2.27;1.93;;;;;;;-145.69;100.00;72208.38;5072699;28;20709;-80
2022/07/08 00:43:55;;;;;;;1.77;1.50;;;;;;;-145.69;100.00;72218.31;5072839;28;20671;-80
2022/07/08 00:46:21;;;;;;;1.57;1.40;;;;;;;-145.69;100.00;72234.25;5072820;28;20213;-80
2022/07/08 00:48:48;;;;;;;2.70;1.73;;;;;;;-145.69;100.00;72246.19;5071621;28;20443;-79
2022/07/08 00:51:16;;;;;;;2.97;1.80;;;;;;;-145.69;100.00;72250.16;5072849;28;20206;-80
2022/07/08 00:53:46;;;;;;;3.80;2.17;;;;;;;-145.69;100.00;72254.16;5072308;28;20199;-79
2022/07/08 00:56:13;;;;;;;2.67;2.20;;;;;;;-145.69;100.00;72262.09;5072931;28;20260;-80
2022/07/08 00:58:40;;;;;;;2.47;2.03;;;;;;;-145.69;100.00;72254.16;5074076;28;20202;-80
2022/07/08 01:01:07;;;;;;;3.30;1.93;;;;;;;-145.69;100.00;72242.22;5072719;28;20195;-80
2022/07/08 01:03:33;;;;;;;2.57;2.07;;;;;;;-145.69;100.00;72222.31;5072156;28;20657;-80
2022/07/08 01:06:00;;;;;;;2.93;1.80;;;;;;;-145.69;100.00;72206.38;5072614;28;20211;-80
2022/07/08 01:08:27;;;;;;;5.10;1.97;;;;;;;-145.69;100.00;72202.41;5072899;28;20272;-79
2022/07/08 01:10:55;;;;;;;3.00;1.80;;;;;;;-145.69;100.00;72194.44;5072701;28;20202;-80
2022/07/08 01:13:22;;;;;;;2.00;1.50;;;;;;;-145.69;100.00;72184.50;5072724;28;20569;-79
2022/07/08 01:15:49;;;;;;;5.43;1.90;;;;;;;-145.69;100.00;72174.53;5072208;28;20202;-80
2022/07/08 01:18:27;;;;;;;2.30;2.10;;;;;;;-145.69;100.00;72156.63;5072581;28;20203;-80
2022/07/08 01:20:55;;;;;;;2.00;1.70;;;;;;;-145.69;100.00;72140.69;5072701;28;20284;-80
2022/07/08 01:23:22;;;;;;;2.20;1.70;;;;;;;-145.69;100.00;72138.72;5072555;28;20230;-80
2022/07/08 01:25:49;;;;;;;3.27;2.00;;;;;;;-145.69;100.00;72132.75;5072659;28;20199;-80
2022/07/08 01:28:17;;;;;;;3.53;1.80;;;;;;;-145.69;100.00;72122.78;5072213;28;20203;-80
2022/07/08 01:30:44;;;;;;;3.47;1.80;;;;;;;-145.69;100.00;72106.88;5072453;28;20713;-79
2022/07/08 01:33:10;;;;;;;5.87;1.60;;;;;;;-145.69;100.00;72110.84;5072372;28;20211;-81
2022/07/08 01:35:37;;;;;;;3.08;1.70;;;;;;;-145.69;100.00;72126.78;5060722;28;20203;-81
2022/07/08 01:38:05;;;;;;;3.65;2.38;;;;;;;-145.69;100.00;72124.78;5057458;28;20193;-83
2022/07/08 01:40:31;;;;;;;6.63;2.47;;;;;;;-145.69;100.00;72126.78;5072419;28;20199;-80
2022/07/08 01:42:58;;;;;;;9.97;2.30;;;;;;;-145.69;100.00;72130.75;5068722;28;20222;-82
2022/07/08 01:45:24;;;;;;;4.27;2.37;;;;;;;-145.69;100.00;72138.72;5052874;28;20200;-80
2022/07/08 01:47:51;;;;;;;7.73;2.60;;;;;;;-145.69;100.00;72134.72;5051878;28;20235;-81
2022/07/08 01:50:17;;;;;;;10.83;3.07;;;;;;;-145.69;100.00;72154.63;5054485;28;20227;-82
2022/07/08 01:52:44;;;;;;;10.57;2.40;;;;;;;-145.69;100.00;72156.63;5056160;28;20222;-80
2022/07/08 01:55:12;;;;;;;7.20;2.17;;;;;;;-145.69;100.00;72170.56;5055755;28;20651;-80
2022/07/08 01:57:38;;;;;;;12.07;2.53;;;;;;;-145.69;100.00;72186.47;5055369;28;20210;-82
2022/07/08 02:00:06;;;;;;;8.27;2.73;;;;;;;-145.69;100.00;72178.53;5055516;28;20203;-83
2022/07/08 02:02:33;;;;;;;8.60;2.13;;;;;;;-145.69;100.00;72188.47;5056048;28;20296;-81
2022/07/08 02:04:59;;;;;;;12.37;2.70;;;;;;;-145.69;100.00;72196.44;5055778;28;20214;-81
2022/07/08 02:07:25;;;;;;;10.97;2.27;;;;;;;-145.69;100.00;72200.41;5055672;28;20658;-81
2022/07/08 02:09:52;;;;;;;12.20;2.10;;;;;;;-145.69;100.00;72198.41;5056075;28;20203;-83
2022/07/08 02:12:19;;;;;;;9.83;2.73;;;;;;;-145.69;100.00;72212.34;5055871;28;20199;-84
2022/07/08 02:14:45;;;;;;;9.27;2.60;;;;;;;-145.69;100.00;72222.31;5055085;28;20210;-82
2022/07/08 02:17:12;;;;;;;9.93;2.50;;;;;;;-145.69;100.00;72218.31;5055763;28;20199;-82
2022/07/08 02:19:39;;;;;;;10.30;2.23;;;;;;;-145.69;100.00;72228.28;5055723;28;20200;-83
2022/07/08 02:22:06;;;;;;;7.90;2.47;;;;;;;-145.69;100.00;72230.25;5055190;28;20223;-81
2022/07/08 02:24:32;;;;;;;13.90;3.43;;;;;;;-145.69;99.72;72236.22;5055900;28;20214;-81
2022/07/08 02:26:58;;;;;;;11.00;2.90;;;;;;;-145.69;98.70;72246.19;5055313;28;20200;-82
2022/07/08 02:29:26;;;;;;;10.70;3.00;;;;;;;-145.69;94.60;72256.13;5055631;28;20207;-82
2022/07/08 02:31:53;;;;;;;12.63;2.77;;;;;;;-145.69;94.11;72270.06;5067042;28;20703;-84
2022/07/08 02:34:20;;;;;;;13.57;3.40;;;;;;;-145.69;94.69;72274.06;5075157;28;20199;-83
2022/07/08 02:36:46;;;;;;;10.27;3.00;;;;;;;-145.69;94.64;72293.94;5075289;28;20202;-83
2022/07/08 02:39:13;;;;;;;15.73;3.58;;;;;;;-145.69;93.89;72297.94;5074349;28;20434;-81
2022/07/08 02:41:40;;;;;;;15.50;2.97;;;;;;;-145.69;93.29;72297.94;5074944;28;20248;-82
2022/07/08 02:44:07;;;;;;;8.67;2.90;;;;;;;-145.69;92.43;72309.88;5075105;28;20203;-83
2022/07/08 02:46:35;;;;;;;11.73;2.80;;;;;;;-145.69;92.61;72311.88;5075096;28;20225;-82
2022/07/08 02:49:01;;;;;;;9.17;2.87;;;;;;;-145.69;92.95;72331.78;5075144;28;20268;-83
2022/07/08 02:51:29;;;;;;;16.17;3.20;;;;;;;-145.69;90.86;72329.78;5075330;28;20213;-82
2022/07/08 02:53:55;;;;;;;11.47;3.00;;;;;;;-145.69;92.05;72333.75;5074855;28;20199;-80
2022/07/08 02:56:22;;;;;;;10.73;2.83;;;;;;;-145.69;91.66;72333.75;5074622;28;20206;-76
2022/07/08 02:58:48;;;;;;;9.70;3.43;;;;;;;-145.69;92.15;72337.75;5075020;28;20198;-82
2022/07/08 03:01:15;;;;;;;6.10;2.63;;;;;;;-145.69;91.34;72341.72;5074225;28;20202;-79
2022/07/08 03:03:43;;;;;;;8.37;2.67;;;;;;;-145.69;92.78;72355.66;5074348;28;20700;-79
2022/07/08 03:06:09;;;;;;;7.90;2.77;;;;;;;-145.69;94.00;72361.63;5074622;28;20202;-83
2022/07/08 03:08:35;;;;;;;11.80;2.70;;;;;;;-145.69;93.72;72373.56;5074738;28;20210;-82
2022/07/08 03:11:02;;;;;;;14.50;2.50;;;;;;;-145.69;94.35;72381.53;5074432;28;20202;-81
2022/07/08 03:13:28;;;;;;;9.33;2.80;;;;;;;-145.69;94.44;72383.53;5073645;28;20553;-81
2022/07/08 03:15:55;;;;;;;6.63;2.70;;;;;;;-145.69;94.91;72381.53;5074746;28;20194;-80
2022/07/08 03:18:21;;;;;;;15.25;3.40;;;;;;;-145.69;94.52;72375.56;5073133;28;20427;-81
2022/07/08 03:20:49;;;;;;;11.80;3.53;;;;;;;-145.69;94.82;72387.50;5074790;28;20203;-80
2022/07/08 03:23:16;;;;;;;7.00;3.27;;;;;;;-145.69;95.17;72399.44;5074237;28;20284;-81
2022/07/08 03:25:42;;;;;;;11.07;2.80;;;;;;;-145.69;95.91;72401.44;5073874;28;20712;-81
2022/07/08 03:28:09;;;;;;;9.20;3.33;;;;;;;-145.69;96.94;72417.34;5074209;28;20565;-81
2022/07/08 03:30:35;;;;;;;12.37;3.47;;;;;;;-145.69;98.02;72437.25;5074492;28;20206;-81
2022/07/08 03:33:02;;;;;;;10.20;3.00;;;;;;;-145.69;98.35;72447.22;5074438;28;20198;-80
2022/07/08 03:35:28;;;;;;;12.30;3.40;;;;;;;-145.69;100.00;72459.16;5074123;28;20202;-80
2022/07/08 03:37:56;;;;;;;15.47;3.87;;;;;;;-145.69;100.00;72475.06;5073717;28;20194;-79
2022/07/08 03:43:06;;;;;;;13.10;3.10;;;;;;;-145.69;100.00;72481.03;5073817;28;20260;-80
2022/07/08 03:45:32;;;;;;;10.97;3.30;;;;;;;-145.69;100.00;72496.97;5073407;28;20194;-80
2022/07/08 03:48:00;;;;;;;11.63;3.20;;;;;;;-145.69;100.00;72518.88;5073930;28;20202;-80
2022/07/08 03:50:27;;;;;;;11.03;3.50;;;;;;;-145.69;100.00;72528.81;5073658;28;20685;-80
2022/07/08 03:52:53;;;;;;;9.63;3.97;;;;;;;-145.69;100.00;72548.72;5073918;28;20199;-79
2022/07/08 03:55:24;;;;;;;14.70;3.53;;;;;;;-145.69;100.00;72546.72;5073797;28;20213;-80
2022/07/08 03:57:50;;;;;;;13.17;3.57;;;;;;;-145.69;100.00;72560.66;5073813;28;20198;-79
2022/07/08 04:00:17;;;;;;;9.70;3.37;;;;;;;-145.69;100.00;72572.59;5073853;28;20203;-80
2022/07/08 04:02:43;;;;;;;12.70;3.27;;;;;;;-145.69;100.00;72580.56;5073210;28;20238;-80
2022/07/08 04:05:10;;;;;;;9.07;3.00;;;;;;;-145.69;100.00;72586.53;5073689;28;20844;-80
2022/07/08 04:07:36;;;;;;;16.37;3.90;;;;;;;-145.69;100.00;72596.50;5073592;28;20561;-80
2022/07/08 04:10:03;;;;;;;14.67;3.77;;;;;;;-145.69;100.00;72590.53;5073850;28;20206;-80
2022/07/08 04:12:32;;;;;;;22.20;4.97;;;;;;;-145.69;100.00;72578.56;5072826;28;20206;-80
2022/07/08 04:14:58;;;;;;;12.80;3.43;;;;;;;-145.69;100.00;72572.59;5074537;28;20191;-80
2022/07/08 04:17:25;;;;;;;13.97;3.40;;;;;;;-145.69;100.00;72568.63;5073141;28;20202;-80
2022/07/08 04:19:51;;;;;;;11.70;3.20;;;;;;;-145.69;100.00;72564.66;5073142;28;20206;-80
2022/07/08 04:22:18;;;;;;;11.83;3.47;;;;;;;-145.69;100.00;72532.78;5073198;28;20589;-80
2022/07/08 04:24:44;;;;;;;13.83;3.17;;;;;;;-145.69;100.00;72522.84;5072960;28;20199;-79
2022/07/08 04:27:11;;;;;;;15.20;3.20;;;;;;;-145.69;100.00;72512.91;5073221;28;20607;-79
2022/07/08 04:29:39;;;;;;;12.53;2.80;;;;;;;-145.69;100.00;72496.97;5062923;28;20196;-80
2022/07/08 04:32:05;;;;;;;9.38;3.05;;;;;;;-145.69;100.00;72483.03;5052226;28;20443;-79
2022/07/08 04:34:32;;;;;;;11.23;2.87;;;;;;;-145.69;99.78;72455.16;5053264;28;20199;-80
2022/07/08 04:36:58;;;;;;;12.10;3.27;;;;;;;-145.69;100.00;72453.19;5053199;28;20200;-80
2022/07/08 04:39:25;;;;;;;12.60;2.90;;;;;;;-145.69;98.38;72455.16;5069006;28;20249;-79
2022/07/08 04:41:52;;;;;;;13.57;3.57;;;;;;;-145.69;98.31;72469.09;5072977;28;20325;-80
2022/07/08 04:44:18;;;;;;;10.57;2.80;;;;;;;-145.69;99.43;72483.03;5072814;28;20315;-80
2022/07/08 04:46:46;;;;;;;10.77;2.47;;;;;;;-145.69;100.00;72493.00;5072645;28;20205;-79
2022/07/08 04:49:13;;;;;;;13.07;2.67;;;;;;;-145.69;100.00;72496.97;5072914;28;20235;-80
2022/07/08 04:51:39;;;;;;;10.03;2.67;;;;;;;-145.69;100.00;72500.94;5072894;28;20680;-80
2022/07/08 04:54:05;;;;;;;10.90;2.57;;;;;;;-145.69;100.00;72489.00;5072817;28;20206;-80
2022/07/08 04:56:32;;;;;;;12.03;2.43;;;;;;;-145.69;100.00;72504.94;5072783;28;20206;-80
2022/07/08 04:58:58;;;;;;;8.10;3.17;;;;;;;-145.69;100.00;72502.94;5072453;28;20226;-80
2022/07/08 05:01:25;;;;;;;6.50;2.50;;;;;;;-145.69;100.00;72493.00;5072897;28;20565;-78
2022/07/08 05:03:53;;;;;;;12.17;3.33;;;;;;;-145.69;100.00;72487.00;5072586;28;20697;-79
2022/07/08 05:06:20;;;;;;;10.97;3.20;;;;;;;-145.69;100.00;72479.06;5072721;28;20194;-80
2022/07/08 05:08:46;;;;;;;9.47;2.90;;;;;;;-145.69;100.00;72461.13;5072386;28;20234;-79
2022/07/08 05:11:13;;;;;;;8.77;2.47;;;;;;;-145.69;100.00;72451.19;5072744;28;20201;-80
2022/07/08 05:13:39;;;;;;;12.57;3.40;;;;;;;-145.69;100.00;72453.19;5072331;28;20203;-79
2022/07/08 05:16:06;;;;;;;12.77;2.70;;;;;;;-145.69;98.72;72453.19;5072625;28;20570;-80
2022/07/08 05:18:32;;;;;;;9.97;2.23;;;;;;;-145.69;99.30;72451.19;5072736;28;20569;-79
2022/07/08 05:21:00;;;;;;;11.70;2.40;;;;;;;-145.69;98.33;72433.28;5072449;28;20217;-80
2022/07/08 05:23:27;;;;;;;8.80;2.30;;;;;;;-145.69;97.97;72437.25;5073339;28;20692;-79
2022/07/08 05:25:53;;;;;;;12.13;2.60;;;;;;;-145.69;97.66;72447.22;5076370;28;20221;-80
2022/07/08 05:28:20;;;;;;;8.53;2.70;;;;;;;-145.69;98.11;72439.25;5076238;28;20214;-80
2022/07/08 05:30:46;;;;;;;9.97;2.73;;;;;;;-145.69;97.75;72445.22;5076710;28;20210;-80
2022/07/08 05:33:12;;;;;;;12.17;2.73;;;;;;;-145.69;96.57;72425.31;5076464;28;20203;-80
2022/07/08 05:35:39;;;;;;;11.07;2.33;;;;;;;-145.69;98.17;72417.34;5076483;28;20203;-80
2022/07/08 05:38:07;;;;;;;11.53;2.90;;;;;;;-145.69;95.27;72399.44;5076491;28;20195;-80
2022/07/08 05:40:33;;;;;;;12.73;2.30;;;;;;;-145.69;94.40;72413.38;5076309;28;20206;-80
2022/07/08 05:43:00;;;;;;;11.73;2.83;;;;;;;-145.69;94.26;72379.53;5076047;28;20688;-80
2022/07/08 05:45:26;;;;;;;9.97;2.50;;;;;;;-145.69;92.88;72349.69;5075790;28;20206;-80
2022/07/08 05:47:52;;;;;;;10.37;2.70;;;;;;;-145.69;90.13;72317.84;5076261;28;20206;-78
2022/07/08 05:50:19;;;;;;;14.17;2.40;;;;;;;-145.69;87.35;72244.19;5076037;28;20585;-80
2022/07/08 05:52:45;;;;;;;8.63;2.00;;;;;;;-145.69;82.65;72140.69;5075857;28;20592;-79
2022/07/08 05:55:13;;;;;;;4.50;1.60;;;;;;;-145.69;81.31;72075.03;5075892;28;20207;-80
2022/07/08 05:57:39;;;;;;;5.82;2.28;;;;;;;-145.69;79.40;72118.81;5075652;28;20205;-80
2022/07/08 06:00:07;;;;;;;7.30;1.77;;;;;;;-145.69;78.17;72102.88;5075826;28;20650;-81
2022/07/08 06:02:34;;;;;;;12.27;2.20;;;;;;;-145.69;78.58;72102.88;5075738;28;20206;-80
2022/07/08 06:05:00;;;;;;;10.68;2.47;;;;;;;-145.69;77.02;72084.97;5075728;28;20265;-80
2022/07/08 06:07:26;;;;;;;10.10;1.60;;;;;;;-145.69;75.36;72035.22;5075806;28;20210;-80
2022/07/08 06:09:53;;;;;;;9.32;1.50;;;;;;;-145.69;76.07;72013.31;5075791;28;20229;-79
2022/07/08 06:12:21;;;;;;;8.85;1.98;;;;;;;-145.69;74.17;71995.41;5075564;28;20234;-80
2022/07/08 06:14:47;;;;;;;6.97;1.63;;;;;;;-145.69;74.86;72077.00;5075912;28;20199;-80
2022/07/08 06:17:14;;;;;;;6.97;1.70;;;;;;;-145.69;78.63;72090.94;5075573;28;20205;-81
2022/07/08 06:19:40;;;;;;;6.10;1.85;;;;;;;-145.69;77.53;72077.00;5075422;28;20199;-81
2022/07/08 06:22:08;;;;;;;3.63;1.38;;;;;;;-145.69;81.57;72084.97;5075349;28;20203;-80
2022/07/08 06:24:35;;;;;;;5.95;1.50;;;;;;;-145.69;78.95;72025.28;5075305;28;20688;-80
2022/07/08 06:27:01;;;;;;;7.70;1.45;;;;;;;-145.69;75.99;71963.56;5075508;28;20199;-79
2022/07/08 06:29:29;;;;;;;6.82;1.38;;;;;;;-145.69;76.54;72071.03;5067035;28;20200;-80
2022/07/08 06:31:55;;;;;;;6.75;1.70;;;;;;;-145.69;79.92;72082.97;5055362;28;20654;-80
2022/07/08 06:34:22;;;;;;;8.75;1.85;;;;;;;-145.69;79.74;72122.78;5055185;28;20199;-80
2022/07/08 06:36:49;;;;;;;15.35;2.10;;;;;;;-145.69;78.91;72094.94;5054330;28;20658;-81
2022/07/08 06:39:15;;;;;;;9.40;2.30;;;;;;;-145.69;73.89;71995.41;5069891;28;20744;-81
2022/07/08 06:41:41;;;;;;;14.98;2.63;;;;;;;-145.69;79.46;72146.69;5075389;28;20199;-80
2022/07/08 06:44:08;;;;;;;7.72;2.10;;;;;;;-145.69;82.27;72182.50;5074899;28;20248;-84
2022/07/08 06:46:36;;;;;;;9.27;2.25;;;;;;;-145.69;81.68;72152.66;5075000;28;20198;-81
2022/07/08 06:49:02;;;;;;;10.68;2.00;;;;;;;-145.69;82.41;72146.69;5074759;28;20287;-81
2022/07/08 06:51:28;;;;;;;8.25;1.80;;;;;;;-145.69;82.76;72154.63;5075308;28;20205;-81
2022/07/08 06:56:39;;;;;;;8.43;2.28;;;;;;;-145.69;82.07;72154.63;5075075;28;20569;-80
2022/07/08 06:59:06;;;;;;;7.15;1.63;;;;;;;-145.69;85.68;72182.50;5074969;28;20203;-80
2022/07/08 07:01:32;;;;;;;6.43;2.10;;;;;;;-145.69;85.00;72170.56;5074863;28;20222;-82
2022/07/08 07:04:01;;;;;;;9.63;2.25;;;;;;;-145.69;84.12;72162.59;5074651;28;20233;-81
2022/07/08 07:06:28;;;;;;;7.40;2.40;;;;;;;-145.69;84.05;72198.41;5074742;28;20195;-79
2022/07/08 07:08:54;;;;;;;16.63;2.95;;;;;;;-145.69;84.95;72234.25;5074654;28;20672;-81
2022/07/08 07:11:20;;;;;;;8.02;2.70;;;;;;;-145.69;85.91;72234.25;5074508;28;20199;-79
2022/07/08 07:13:47;;;;;;;11.07;2.60;;;;;;;-145.69;87.58;72254.16;5074573;28;20209;-81
2022/07/08 07:16:14;;;;;;;10.73;2.40;;;;;;;-145.69;86.42;72242.22;5074580;28;20217;-80
2022/07/08 07:18:40;;;;;;;10.85;2.22;;;;;;;-145.69;86.67;72202.41;5074667;28;20214;-79
2022/07/08 07:21:09;;;;;;;7.75;2.25;;;;;;;-145.69;83.24;72164.59;5074240;28;20202;-79
2022/07/08 07:23:36;;;;;;;9.95;2.33;;;;;;;-145.69;81.64;72184.50;5074463;28;20254;-80
2022/07/08 07:26:02;;;;;;;10.70;2.63;;;;;;;-145.69;83.49;72214.34;5074427;28;20198;-80
2022/07/08 07:28:29;;;;;;;8.60;2.53;;;;;;;-145.69;82.01;72202.41;5074172;28;20202;-80
2022/07/08 07:30:55;;;;;;;12.82;2.05;;;;;;;-145.69;82.83;72134.72;5062368;28;20199;-81
2022/07/08 07:33:21;;;;;;;9.10;2.35;;;;;;;-145.69;81.57;72120.81;5070142;28;20202;-81
2022/07/08 07:35:48;;;;;;;11.02;2.05;;;;;;;-145.69;81.75;72144.69;5074107;28;20209;-80
2022/07/08 07:38:16;;;;;;;8.75;2.55;;;;;;;-145.69;83.36;72168.56;5074021;28;20209;-80
2022/07/08 07:40:42;;;;;;;8.57;2.30;;;;;;;-145.69;82.23;72164.59;5073894;28;20202;-81
2022/07/08 07:43:08;;;;;;;9.93;2.70;;;;;;;-145.69;82.58;72174.53;5073966;28;20202;-81
2022/07/08 07:45:35;;;;;;;12.07;2.40;;;;;;;-145.69;84.47;72138.72;5073852;28;20226;-80
2022/07/08 07:48:01;;;;;;;13.48;2.38;;;;;;;-145.69;79.88;72063.09;5072894;28;20206;-80
2022/07/08 07:50:29;;;;;;;8.50;2.17;;;;;;;-145.69;75.60;72003.38;5073876;28;20248;-81
2022/07/08 07:52:56;;;;;;;10.88;2.50;;;;;;;-145.69;77.27;71943.69;5073643;28;20198;-81
2022/07/08 07:55:26;;;;;;;14.93;2.58;;;;;;;-145.69;71.92;71899.88;5073696;28;20208;-79
2022/07/08 07:57:53;;;;;;;9.20;2.50;;;;;;;-145.69;65.88;71850.13;5073568;28;20203;-80
2022/07/08 08:00:20;;;;;;;13.68;2.42;;;;;;;-145.69;68.25;71909.84;5073227;28;20736;-78
2022/07/08 08:02:46;;;;;;;17.35;2.40;;;;;;;-145.69;71.92;71949.66;5073242;28;20203;-79
2022/07/08 08:05:14;;;;;;;12.20;2.78;;;;;;;-145.69;71.46;71951.63;5073593;28;20237;-79
2022/07/08 08:07:42;;;;;;;6.25;2.05;;;;;;;-145.69;75.28;71846.16;5073188;28;20199;-78
2022/07/08 08:10:09;;;;;;;8.13;2.13;;;;;;;-145.69;64.39;71768.53;5073456;28;20234;-79
2022/07/08 08:12:37;;;;;;;10.38;2.30;;;;;;;-145.69;69.12;71907.84;5073135;28;20604;-79
2022/07/08 08:15:04;;;;;;;13.50;2.35;;;;;;;-145.69;70.17;71929.75;5073202;28;20209;-79
2022/07/08 08:17:35;;;;;;;10.90;2.30;;;;;;;-145.69;67.90;71919.78;5073222;28;20741;-79
2022/07/08 08:20:02;;;;;;;7.30;2.38;;;;;;;-145.69;69.17;71947.66;5072839;28;20205;-79
2022/07/08 08:22:28;;;;;;;7.13;2.25;;;;;;;-145.69;71.18;71995.41;5073243;28;20199;-80
2022/07/08 08:24:55;;;;;;;9.52;1.92;;;;;;;-145.69;65.13;71872.03;5072893;28;20707;-79
2022/07/08 08:27:22;;;;;;;4.20;1.60;;;;;;;-145.69;63.00;71780.50;5070258;28;20553;-79
2022/07/08 08:29:49;;;;;;;7.72;1.90;;;;;;;-145.69;63.27;71716.81;5052926;28;20203;-80
2022/07/08 08:32:16;;;;;;;6.35;2.08;;;;;;;-145.69;64.08;71820.28;5052942;28;20200;-80
2022/07/08 08:34:42;;;;;;;9.45;2.42;;;;;;;-145.69;64.96;71852.13;5053218;28;20195;-79
2022/07/08 08:37:09;;;;;;;9.63;2.33;;;;;;;-145.69;65.23;71876.00;5053196;28;20203;-82
2022/07/08 08:39:36;;;;;;;10.00;1.90;;;;;;;-145.69;70.53;71891.94;5070725;28;20195;-80
2022/07/08 08:42:02;;;;;;;9.38;2.00;;;;;;;-145.69;67.30;71852.13;5072832;28;20205;-79
2022/07/08 08:44:29;;;;;;;11.55;2.47;;;;;;;-145.69;67.39;71909.84;5073150;28;20226;-81
2022/07/08 08:46:57;;;;;;;5.85;2.00;;;;;;;-145.69;66.97;71939.69;5072988;28;20624;-78
2022/07/08 08:49:25;;;;;;;4.45;1.70;;;;;;;-145.69;67.08;71925.75;5072731;28;20231;-82
2022/07/08 08:51:51;;;;;;;7.72;1.80;;;;;;;-145.69;65.14;71951.63;5072924;28;20221;-80
2022/07/08 08:54:18;;;;;;;9.23;2.00;;;;;;;-145.69;69.15;71935.72;5072799;28;20203;-80
2022/07/08 08:56:46;;;;;;;9.35;2.08;;;;;;;-145.69;67.41;71895.91;5071941;28;20511;-81
2022/07/08 08:59:14;;;;;;;12.10;2.15;;;;;;;-145.69;67.20;71939.69;5072150;28;20273;-80
2022/07/08 09:01:42;;;;;;;8.25;1.70;;;;;;;-145.69;67.25;71967.56;5072713;28;20657;-81
2022/07/08 09:04:11;;;;;;;10.18;2.25;;;;;;;-145.69;67.48;71965.56;5072663;28;20304;-80
2022/07/08 09:06:38;;;;;;;10.98;2.03;;;;;;;-145.69;67.08;71959.59;5072541;28;20616;-79
2022/07/08 09:09:05;;;;;;;12.38;2.78;;;;;;;-145.69;69.39;72039.19;5072373;28;20195;-79
2022/07/08 09:11:33;;;;;;;9.77;2.30;;;;;;;-145.69;71.41;72031.25;5072847;28;20199;-79
2022/07/08 09:14:14;;;;;;;5.82;1.83;;;;;;;-145.69;70.87;71929.75;5072580;28;20222;-80
2022/07/08 09:16:41;;;;;;;6.35;1.65;;;;;;;-145.69;69.69;71891.94;5072736;28;20256;-80
2022/07/08 09:19:15;;;;;;;6.35;1.65;;;;;;;-145.69;66.24;71838.19;5072753;28;20574;-79
2022/07/08 09:21:52;;;;;;;5.18;1.60;;;;;;;-145.69;64.77;71943.69;5072957;28;20202;-80
2022/07/08 09:24:19;;;;;;;6.25;1.85;;;;;;;-145.69;65.41;71923.78;5072535;28;20226;-80
2022/07/08 09:26:46;;;;;;;14.65;2.67;;;;;;;-145.69;64.35;71856.09;5072721;28;20202;-84
2022/07/08 09:29:13;;;;;;;13.50;3.83;;;;;;;-145.69;68.00;71804.38;5072213;28;20539;-81
2022/07/08 09:31:39;;;;;;;18.75;4.10;;;;;;;-145.69;71.42;71802.38;5072432;28;20688;-78
2022/07/08 09:34:10;;;;;;;9.05;1.95;;;;;;;-145.69;64.30;71864.06;5071976;28;20561;-80
2022/07/08 09:36:46;;;;;;;8.55;1.88;;;;;;;-145.69;66.97;71913.81;5071582;28;20440;-79
2022/07/08 09:39:23;;;;;;;11.63;1.90;;;;;;;-145.69;69.37;71959.59;5072648;28;20198;-79
2022/07/08 09:41:50;;;;;;;10.18;2.03;;;;;;;-145.69;67.89;71967.56;5072468;28;20554;-81
2022/07/08 09:44:19;;;;;;;9.95;2.20;;;;;;;-145.69;69.22;71915.81;5072128;28;20226;-80
2022/07/08 09:46:46;;;;;;;11.45;2.22;;;;;;;-145.69;70.16;71935.72;5072572;28;20198;-83
2022/07/08 09:49:27;;;;;;;5.55;2.05;;;;;;;-145.69;73.47;71955.63;5072575;28;20246;-81
2022/07/08 09:51:59;;;;;;;7.55;2.05;;;;;;;-145.69;70.83;71931.72;5072649;28;20233;-83
2022/07/08 09:54:26;;;;;;;7.65;1.90;;;;;;;-145.69;71.22;71909.84;5072388;28;20675;-81
2022/07/08 09:57:00;;;;;;;5.85;1.70;;;;;;;-145.69;65.66;71895.91;5072417;28;20305;-82
2022/07/08 09:59:27;;;;;;;7.63;1.83;;;;;;;-145.69;64.66;71939.69;5072031;28;20198;-80
2022/07/08 10:01:53;;;;;;;15.05;3.63;;;;;;;-145.69;68.05;71939.69;5072458;28;20194;-81
2022/07/08 10:04:22;;;;;;;6.85;2.05;;;;;;;-145.69;67.61;71943.69;5072452;28;20222;-82
2022/07/08 10:06:58;;;;;;;12.32;2.22;;;;;;;-145.69;76.01;71953.63;5072640;28;20199;-82
2022/07/08 10:09:29;;;;;;;10.05;2.22;;;;;;;-145.69;70.30;71959.59;5072249;28;20625;-80
2022/07/08 10:11:57;;;;;;;11.98;2.78;;;;;;;-145.69;65.66;71973.53;5075259;28;20199;-82
2022/07/08 10:14:24;;;;;;;5.82;1.90;;;;;;;-145.69;69.19;71965.56;5075790;28;20653;-82
2022/07/08 10:17:04;;;;;;;13.25;1.80;;;;;;;-145.69;65.26;71967.56;5076714;28;20202;-81
2022/07/08 10:19:34;;;;;;;4.68;1.77;;;;;;;-145.69;66.92;71933.72;5075451;28;20614;-85
2022/07/08 10:22:03;;;;;;;10.27;1.73;;;;;;;-145.69;63.52;71943.69;5075284;28;20198;-82
2022/07/08 10:24:37;;;;;;;8.15;1.80;;;;;;;-145.69;65.26;71895.91;5075362;28;20719;-83
2022/07/08 10:27:04;;;;;;;6.63;1.73;;;;;;;-145.69;61.74;71905.88;5071022;28;20199;-84
2022/07/08 10:29:32;;;;;;;4.57;1.67;;;;;;;-145.69;62.50;71887.94;5055625;28;20226;-82
2022/07/08 10:31:59;;;;;;;6.15;1.55;;;;;;;-145.69;64.89;71852.13;5055241;28;20227;-78
2022/07/08 10:34:31;;;;;;;8.85;2.08;;;;;;;-145.69;64.74;71844.16;5055746;28;20199;-83
2022/07/08 10:36:57;;;;;;;6.50;1.75;;;;;;;-145.69;60.34;71844.16;5055642;28;20209;-81
2022/07/08 10:39:26;;;;;;;6.05;1.80;;;;;;;-145.69;63.96;71858.09;5072036;28;20203;-86
2022/07/08 10:41:58;;;;;;;6.90;1.58;;;;;;;-145.69;61.11;71880.00;5075588;28;20274;-80
2022/07/08 10:44:52;;;;;;;7.10;1.35;;;;;;;-145.69;71.39;71852.13;5074859;28;20211;-84
2022/07/08 10:47:24;;;;;;;7.97;1.58;;;;;;;-145.69;59.18;71856.09;5067939;28;20203;-82
2022/07/08 10:49:51;;;;;;;8.95;1.90;;;;;;;-145.69;60.23;71810.34;5075885;28;20226;-83
2022/07/08 10:52:21;;;;;;;7.90;1.65;;;;;;;-145.69;60.79;71802.38;5074919;28;20649;-82
2022/07/08 10:54:47;;;;;;;11.43;2.10;;;;;;;-145.69;58.49;71804.38;5075000;28;20237;-83
2022/07/08 10:57:27;;;;;;;6.45;1.60;;;;;;;-145.69;59.74;71820.28;5074955;28;20213;-81
2022/07/08 11:00:07;;;;;;;7.57;1.90;;;;;;;-145.69;59.72;71816.31;5074856;28;20207;-82
2022/07/08 11:02:38;;;;;;;4.18;1.50;;;;;;;-145.69;67.08;71786.47;5075172;28;20281;-82
2022/07/08 11:05:06;;;;;;;6.72;1.90;;;;;;;-145.69;58.61;71774.50;5074752;28;20279;-80
2022/07/08 11:07:34;;;;;;;8.90;1.60;;;;;;;-145.69;55.70;71784.47;5074333;28;20199;-82
2022/07/08 11:10:05;;;;;;;5.40;1.42;;;;;;;-145.69;56.89;71796.41;5074447;28;20203;-81
2022/07/08 11:12:35;;;;;;;7.00;1.50;;;;;;;-145.69;59.56;71776.50;5073317;28;20212;-83
2022/07/08 11:15:04;;;;;;;7.93;1.70;;;;;;;-145.69;62.14;71734.72;5074715;28;20573;-82
2022/07/08 11:17:32;;;;;;;9.27;1.67;;;;;;;-145.69;58.86;71720.78;5074373;28;20210;-82
2022/07/08 11:20:00;;;;;;;7.07;1.80;;;;;;;-145.69;55.24;71728.75;5074415;28;20202;-84